Time;durP1;ratioP1;P1;durP2;ratioP2;P2;SDS_P1;SDS_P2;PMS_P1;PMS_P2;Temp;Humidity;BMP_temperature;BMP_pressure;BME280_temperature;BME280_humidity;BME280_pressure;Samples;Min_cycle;Max_cycle;Signal;HPM_P1;HPM_P2
2023/05/08 00:00:39;;;;;;;6.90;2.58;;;;;;;5.01;48.97;101003.14;1723556;82;21028;-63
2023/05/08 00:03:07;;;;;;;7.25;2.50;;;;;;;4.94;48.84;101001.46;1718643;82;21537;-63
2023/05/08 00:05:33;;;;;;;6.87;2.42;;;;;;;4.86;49.01;100998.89;1723439;82;20975;-63
2023/05/08 00:08:00;;;;;;;3.75;2.17;;;;;;;4.84;49.21;100997.17;1719919;81;21015;-63
2023/05/08 00:10:30;;;;;;;4.28;2.15;;;;;;;4.85;49.31;101004.09;1722751;82;21017;-63
2023/05/08 00:13:00;;;;;;;5.72;2.10;;;;;;;4.82;49.41;101004.10;1724737;82;20963;-63
2023/05/08 00:15:24;;;;;;;4.17;2.98;;;;;;;4.78;49.58;100997.20;1720699;81;21132;-63
2023/05/08 00:17:51;;;;;;;2.77;2.17;;;;;;;4.75;49.67;101003.68;1727924;80;21022;-63
2023/05/08 00:20:18;;;;;;;4.33;2.30;;;;;;;4.70;49.76;100998.09;1732460;82;20935;-63
2023/05/08 00:22:44;;;;;;;6.00;2.37;;;;;;;4.68;49.76;100998.53;1724763;82;20937;-64
2023/05/08 00:25:10;;;;;;;7.75;2.62;;;;;;;4.67;49.98;101000.67;1725336;81;21099;-63
2023/05/08 00:27:37;;;;;;;8.10;3.10;;;;;;;4.64;50.03;100995.50;1730853;81;21048;-63
2023/05/08 00:30:05;;;;;;;4.58;3.02;;;;;;;4.63;50.14;101002.84;1724174;82;21002;-63
2023/05/08 00:32:33;;;;;;;5.40;2.70;;;;;;;4.61;50.28;101004.57;1729614;82;21042;-63
2023/05/08 00:35:00;;;;;;;7.25;3.00;;;;;;;4.58;50.35;101000.70;1725379;82;21342;-63
2023/05/08 00:37:26;;;;;;;9.08;3.62;;;;;;;4.55;50.43;100997.27;1726432;82;21524;-63
2023/05/08 00:39:52;;;;;;;7.33;3.80;;;;;;;4.50;50.48;101001.14;1724006;82;20975;-63
2023/05/08 00:42:18;;;;;;;6.95;3.90;;;;;;;4.49;50.66;101003.31;1718594;82;21073;-63
2023/05/08 00:44:45;;;;;;;9.93;3.90;;;;;;;4.49;50.82;101005.46;1723693;82;21077;-63
2023/05/08 00:47:11;;;;;;;8.38;3.92;;;;;;;4.51;50.92;101004.18;1725143;82;20990;-63
2023/05/08 00:49:38;;;;;;;11.88;3.58;;;;;;;4.53;50.94;101005.02;1728317;82;21010;-63
2023/05/08 00:52:08;;;;;;;7.78;3.60;;;;;;;4.53;50.93;101001.13;1729126;81;21119;-63
2023/05/08 00:54:38;;;;;;;4.92;3.08;;;;;;;4.51;51.02;101000.30;1724632;81;21588;-63
2023/05/08 00:57:08;;;;;;;7.10;3.52;;;;;;;4.53;51.14;101001.13;1729908;81;21521;-63
2023/05/08 00:59:36;;;;;;;6.40;3.30;;;;;;;4.51;51.17;101000.30;1723750;82;21035;-63
2023/05/08 01:02:03;;;;;;;6.45;3.37;;;;;;;4.51;51.26;101001.59;1723701;82;21077;-63
2023/05/08 01:04:32;;;;;;;7.37;3.27;;;;;;;4.48;51.34;101004.16;1725659;81;21071;-63
2023/05/08 01:06:58;;;;;;;5.67;3.20;;;;;;;4.45;51.47;101001.58;1727280;82;21573;-63
2023/05/08 01:09:25;;;;;;;4.20;3.10;;;;;;;4.42;51.53;101008.05;1729196;82;20984;-63
2023/05/08 01:12:11;;;;;;;4.17;3.15;;;;;;;4.40;51.53;101009.80;1721573;82;21005;-63
2023/05/08 01:14:47;;;;;;;16.95;3.50;;;;;;;4.37;51.77;101018.83;1724549;81;21026;-64
2023/05/08 01:17:23;;;;;;;6.62;3.72;;;;;;;4.36;51.75;101015.39;1724197;81;20971;-63
2023/05/08 01:20:20;;;;;;;10.85;3.42;;;;;;;4.30;51.79;101016.69;1724309;82;21066;-63
2023/05/08 01:23:06;;;;;;;6.00;3.42;;;;;;;4.26;52.03;101014.55;1723014;82;20998;-63
2023/05/08 01:25:59;;;;;;;4.72;3.45;;;;;;;4.25;52.08;101019.70;1723600;81;21520;-63
2023/05/08 01:28:49;;;;;;;6.55;3.87;;;;;;;4.22;52.16;101014.11;1668257;83;21047;-63
2023/05/08 01:31:22;;;;;;;12.30;3.72;;;;;;;4.19;52.15;101025.74;1665185;84;22046;-63
2023/05/08 01:33:58;;;;;;;8.03;3.60;;;;;;;4.12;52.28;101029.20;1663628;84;21042;-63
2023/05/08 01:36:37;;;;;;;7.87;3.83;;;;;;;4.07;52.41;101024.46;1662287;83;21074;-63
2023/05/08 01:39:18;;;;;;;4.60;3.60;;;;;;;4.03;52.54;101022.72;1664284;84;21027;-63
2023/05/08 01:41:51;;;;;;;6.67;3.90;;;;;;;4.02;52.70;101027.47;1664631;85;21406;-63
2023/05/08 01:44:20;;;;;;;5.95;3.92;;;;;;;3.99;52.73;101024.45;1596991;88;21895;-63
2023/05/08 01:46:51;;;;;;;7.22;3.60;;;;;;;3.96;52.85;101025.74;1598738;88;21060;-63
2023/05/08 01:49:26;;;;;;;7.03;4.22;;;;;;;3.95;53.04;101020.56;1600160;88;21530;-63
2023/05/08 01:51:59;;;;;;;7.25;3.70;;;;;;;3.94;53.05;101024.02;1597465;88;21065;-63
2023/05/08 01:54:28;;;;;;;6.92;3.70;;;;;;;3.91;53.09;101024.02;1598626;88;20975;-63
2023/05/08 01:56:58;;;;;;;7.08;3.98;;;;;;;3.94;53.15;101025.31;1598186;88;21071;-63
2023/05/08 01:59:27;;;;;;;5.08;3.80;;;;;;;3.96;53.24;101022.30;1601341;88;21521;-63
2023/05/08 02:01:56;;;;;;;8.55;4.58;;;;;;;3.94;53.17;101028.75;1601606;88;21044;-63
2023/05/08 02:04:24;;;;;;;4.85;3.90;;;;;;;3.92;53.30;101028.31;1605604;86;21042;-63
2023/05/08 02:06:51;;;;;;;7.47;4.05;;;;;;;3.86;53.35;101025.73;1635079;86;21474;-63
2023/05/08 02:09:21;;;;;;;8.90;4.20;;;;;;;3.78;53.31;101035.64;1633899;86;21582;-63
2023/05/08 02:11:49;;;;;;;12.03;4.45;;;;;;;3.73;53.36;101030.89;1636482;86;21085;-63
2023/05/08 02:14:19;;;;;;;5.97;4.70;;;;;;;3.69;53.57;101034.31;1631845;86;21002;-63
2023/05/08 02:16:48;;;;;;;6.08;3.50;;;;;;;3.69;53.68;101034.31;1635232;86;21025;-63
2023/05/08 02:19:16;;;;;;;7.03;4.62;;;;;;;3.71;53.82;101035.19;1633846;86;21044;-63
2023/05/08 02:21:45;;;;;;;6.35;3.85;;;;;;;3.73;53.92;101033.48;1680447;82;20983;-63
2023/05/08 02:24:14;;;;;;;9.63;4.45;;;;;;;3.74;53.92;101032.61;1726354;82;21022;-63
2023/05/08 02:26:43;;;;;;;10.32;4.25;;;;;;;3.78;53.93;101038.62;1725480;81;21017;-63
2023/05/08 02:29:10;;;;;;;6.08;3.45;;;;;;;3.80;53.95;101036.48;1721592;82;20982;-63
2023/05/08 02:31:37;;;;;;;9.68;5.83;;;;;;;3.81;53.95;101039.52;1725215;82;21521;-63
2023/05/08 02:34:06;;;;;;;9.00;4.80;;;;;;;3.81;54.17;101042.10;1724848;82;21006;-64
2023/05/08 02:36:33;;;;;;;6.35;4.15;;;;;;;3.78;54.05;101030.48;1724745;82;20996;-63
2023/05/08 02:39:02;;;;;;;7.37;4.30;;;;;;;3.77;54.21;101038.20;1723413;82;21018;-63
2023/05/08 02:41:31;;;;;;;9.73;4.37;;;;;;;3.76;54.20;101034.77;1722652;82;21472;-63
2023/05/08 02:43:58;;;;;;;10.58;4.28;;;;;;;3.76;54.29;101039.94;1713599;81;21093;-63
2023/05/08 02:46:28;;;;;;;6.03;4.47;;;;;;;3.80;54.65;101048.11;1725377;82;21045;-63
2023/05/08 02:49:13;;;;;;;7.40;4.45;;;;;;;3.85;54.60;101049.86;1726130;82;20978;-63
2023/05/08 02:51:48;;;;;;;7.42;4.03;;;;;;;3.89;54.51;101054.16;1721427;82;21002;-63
2023/05/08 02:54:36;;;;;;;9.75;4.33;;;;;;;3.92;54.62;101048.98;1658330;85;21064;-64
2023/05/08 02:57:16;;;;;;;8.08;4.65;;;;;;;3.92;54.57;101054.16;1719004;82;21045;-63
2023/05/08 02:59:52;;;;;;;5.95;3.42;;;;;;;3.95;54.65;101059.32;1722236;81;21462;-63
2023/05/08 03:02:31;;;;;;;9.15;4.08;;;;;;;4.03;54.71;101049.86;1722215;82;21053;-63
2023/05/08 03:05:02;;;;;;;8.20;5.20;;;;;;;4.04;54.74;101059.36;1728686;82;21029;-63
2023/05/08 03:07:34;;;;;;;8.83;5.25;;;;;;;4.11;54.82;101050.73;1722154;82;21487;-64
2023/05/08 03:10:03;;;;;;;9.98;5.17;;;;;;;4.14;54.63;101055.89;1723356;81;21042;-64
2023/05/08 03:12:32;;;;;;;12.28;5.33;;;;;;;4.10;54.58;101055.48;1726550;82;20975;-64
2023/05/08 03:15:10;;;;;;;11.00;4.58;;;;;;;4.06;54.73;101065.36;1725785;80;21710;-63
2023/05/08 03:17:40;;;;;;;7.65;4.45;;;;;;;4.05;54.61;101063.66;1724341;81;21053;-64
2023/05/08 03:20:11;;;;;;;12.18;5.12;;;;;;;3.96;54.78;101058.48;1725723;82;22402;-63
2023/05/08 03:22:40;;;;;;;11.65;4.90;;;;;;;3.93;54.76;101058.48;1723910;82;20982;-64
2023/05/08 03:25:09;;;;;;;10.70;4.92;;;;;;;3.93;54.84;101054.61;1723032;82;21017;-63
2023/05/08 03:27:37;;;;;;;8.35;4.50;;;;;;;3.93;55.01;101055.90;1726064;82;21573;-63
2023/05/08 03:30:05;;;;;;;5.80;4.03;;;;;;;3.94;54.92;101062.78;1727138;81;20982;-64
2023/05/08 03:32:33;;;;;;;15.68;5.22;;;;;;;3.97;54.92;101060.20;1727073;82;21033;-63
2023/05/08 03:35:01;;;;;;;13.83;4.83;;;;;;;3.97;55.18;101058.91;1725650;82;20974;-63
2023/05/08 03:37:27;;;;;;;;;;;;;;;4.01;55.24;101061.94;1727300;80;20950;-64
2023/05/08 03:39:55;;;;;;;25.40;6.03;;;;;;;3.98;55.52;101059.36;1727042;82;20141;-64
2023/05/08 03:42:23;;;;;;;16.32;5.50;;;;;;;3.92;55.22;101055.45;1727199;81;21029;-64
2023/05/08 03:44:50;;;;;;;16.45;6.20;;;;;;;3.91;55.23;101052.44;1724956;82;21034;-64
2023/05/08 03:47:20;;;;;;;17.80;5.90;;;;;;;3.90;55.31;101058.48;1724352;82;20971;-64
2023/05/08 03:49:48;;;;;;;16.82;5.30;;;;;;;3.91;55.33;101057.61;1718928;82;21046;-64
2023/05/08 03:52:15;;;;;;;15.10;5.53;;;;;;;3.93;55.39;101061.06;1725612;82;21038;-64
2023/05/08 03:54:42;;;;;;;14.90;5.97;;;;;;;4.03;55.57;101065.36;1724240;82;21616;-64
2023/05/08 03:57:10;;;;;;;10.10;5.72;;;;;;;4.14;55.66;101061.06;1723227;82;21560;-64
2023/05/08 03:59:52;;;;;;;8.70;4.78;;;;;;;4.28;55.80;101056.34;1721586;82;21002;-64
2023/05/08 04:02:28;;;;;;;9.43;4.95;;;;;;;4.36;55.72;101058.49;1712601;82;21411;-64
2023/05/08 04:05:07;;;;;;;10.15;4.65;;;;;;;4.46;55.77;101057.63;1723882;81;21021;-64
2023/05/08 04:07:46;;;;;;;13.80;5.37;;;;;;;4.56;55.74;101061.91;1621037;86;21099;-64
2023/05/08 04:10:16;;;;;;;11.57;4.67;;;;;;;4.63;55.79;101053.30;1631234;86;21054;-64
2023/05/08 04:12:55;;;;;;;11.10;4.87;;;;;;;4.69;56.02;101055.86;1634602;86;21007;-64
2023/05/08 04:15:25;;;;;;;14.90;5.90;;;;;;;4.78;55.99;101060.16;1632316;86;21617;-64
2023/05/08 04:17:58;;;;;;;14.45;5.45;;;;;;;4.87;56.13;101061.86;1637216;86;22002;-64
2023/05/08 04:20:28;;;;;;;9.83;5.40;;;;;;;4.91;56.21;101061.00;1642724;85;21509;-64
2023/05/08 04:22:57;;;;;;;16.95;5.85;;;;;;;5.08;56.29;101072.16;1646107;86;22446;-64
2023/05/08 04:25:28;;;;;;;18.15;8.25;;;;;;;5.24;56.30;101066.95;1642273;86;20955;-64
2023/05/08 04:27:53;;;;;;;17.50;10.32;;;;;;;5.41;56.39;101073.35;1639679;86;20998;-64
2023/05/08 04:30:20;;;;;;;21.62;10.65;;;;;;;5.58;56.36;101068.50;1644867;85;21002;-64
2023/05/08 04:32:47;;;;;;;18.42;9.35;;;;;;;5.79;56.44;101078.31;1642512;86;21006;-64
2023/05/08 04:35:17;;;;;;;19.45;9.33;;;;;;;5.99;56.52;101080.40;1647341;85;21030;-64
2023/05/08 04:37:44;;;;;;;17.23;7.70;;;;;;;6.21;56.55;101078.92;1643022;86;21026;-64
2023/05/08 04:40:11;;;;;;;;;;;;;;;6.43;56.56;101084.37;1645375;86;20981;-64
2023/05/08 04:42:41;;;;;;;14.23;7.67;;;;;;;6.61;56.77;101085.07;1642633;86;20179;-64
2023/05/08 04:45:07;;;;;;;15.85;7.00;;;;;;;6.80;56.64;101081.42;1700076;81;20994;-64
2023/05/08 04:47:34;;;;;;;14.38;7.17;;;;;;;6.98;56.50;101084.73;1708305;82;21715;-64
2023/05/08 04:50:01;;;;;;;20.52;7.92;;;;;;;7.12;56.48;101092.78;1712974;83;21023;-64
2023/05/08 04:52:27;;;;;;;23.05;9.10;;;;;;;7.27;56.57;101088.29;1708921;83;21050;-64
2023/05/08 04:54:53;;;;;;;21.23;8.73;;;;;;;7.45;56.51;101085.89;1713458;83;21089;-64
2023/05/08 04:57:20;;;;;;;17.65;7.55;;;;;;;7.64;56.46;101084.78;1708060;82;21012;-64
2023/05/08 04:59:46;;;;;;;28.85;8.13;;;;;;;7.82;56.54;101084.53;1714826;83;21011;-64
2023/05/08 05:02:13;;;;;;;22.42;9.18;;;;;;;8.01;56.55;101089.45;1714412;83;21562;-64
2023/05/08 05:04:39;;;;;;;11.53;5.90;;;;;;;8.20;56.48;101085.69;1709604;81;21087;-64
2023/05/08 05:07:05;;;;;;;13.58;6.53;;;;;;;8.45;56.53;101083.58;1712027;81;20960;-64
2023/05/08 05:09:35;;;;;;;15.63;5.80;;;;;;;8.65;56.45;101092.34;1707353;82;21002;-64
2023/05/08 05:11:59;;;;;;;17.12;5.70;;;;;;;8.88;56.50;101092.41;1708924;81;21056;-64
2023/05/08 05:14:26;;;;;;;10.95;4.75;;;;;;;9.12;56.42;101101.05;1702560;83;21041;-64
2023/05/08 05:16:52;;;;;;;10.15;4.97;;;;;;;9.32;55.99;101103.70;1714775;81;21080;-64
2023/05/08 05:19:19;;;;;;;11.22;4.95;;;;;;;9.48;56.04;101099.91;1725681;81;21547;-64
2023/05/08 05:21:45;;;;;;;11.63;5.20;;;;;;;9.67;55.98;101106.05;1729158;82;21534;-65
2023/05/08 05:24:12;;;;;;;11.20;4.33;;;;;;;9.83;55.96;101106.09;1725756;81;21137;-64
2023/05/08 05:26:44;;;;;;;16.30;6.42;;;;;;;10.04;55.95;101104.32;1724901;81;20985;-65
2023/05/08 05:29:08;;;;;;;14.55;5.90;;;;;;;10.26;55.67;101111.66;1727654;81;21017;-65
2023/05/08 05:31:34;;;;;;;10.13;5.00;;;;;;;10.41;55.71;101105.23;1726397;81;20986;-65
2023/05/08 05:34:00;;;;;;;12.18;6.00;;;;;;;10.57;55.67;101110.95;1722995;81;21121;-66
2023/05/08 05:36:28;;;;;;;7.20;5.00;;;;;;;10.67;55.66;101118.94;1724855;81;21014;-64
2023/05/08 05:38:54;;;;;;;14.07;4.30;;;;;;;10.82;55.52;101119.88;1724438;81;20990;-64
2023/05/08 05:41:21;;;;;;;10.85;4.45;;;;;;;10.96;55.42;101115.59;1721175;81;21108;-64
2023/05/08 05:43:47;;;;;;;8.83;3.60;;;;;;;11.12;55.45;101110.81;1724076;81;21077;-64
2023/05/08 05:46:13;;;;;;;7.70;4.20;;;;;;;11.35;55.23;101118.02;1723411;81;21009;-64
2023/05/08 05:48:40;;;;;;;10.63;4.60;;;;;;;11.66;55.55;101115.37;1725865;81;21100;-64
2023/05/08 05:51:06;;;;;;;17.42;4.30;;;;;;;12.16;55.38;101111.69;1722129;81;21138;-64
2023/05/08 05:53:32;;;;;;;8.83;3.40;;;;;;;12.36;54.96;101112.36;1719289;81;21054;-66
2023/05/08 05:55:59;;;;;;;6.10;3.22;;;;;;;12.46;54.58;101110.28;1703730;81;21618;-64
2023/05/08 05:58:25;;;;;;;7.17;4.28;;;;;;;12.59;54.42;101116.84;1711864;82;21537;-63
2023/05/08 06:00:51;;;;;;;12.70;4.72;;;;;;;12.70;54.27;101114.71;1717328;81;20981;-65
2023/05/08 06:03:17;;;;;;;8.60;5.25;;;;;;;12.84;53.98;101114.70;1722329;81;21499;-64
2023/05/08 06:05:46;;;;;;;8.88;4.47;;;;;;;12.96;53.88;101111.18;1721105;81;21561;-64
2023/05/08 06:08:12;;;;;;;10.60;3.83;;;;;;;13.10;53.58;101115.94;1730801;81;21084;-66
2023/05/08 06:10:38;;;;;;;9.43;3.83;;;;;;;13.25;52.83;101117.61;1728737;81;20986;-63
2023/05/08 06:13:05;;;;;;;6.67;4.30;;;;;;;13.31;53.15;101118.76;1722286;81;21074;-64
2023/05/08 06:15:33;;;;;;;9.30;4.17;;;;;;;13.43;52.84;101120.92;1722597;81;21003;-63
2023/05/08 06:17:59;;;;;;;;;;;;;;;13.57;52.53;101122.57;1733193;80;21021;-64
2023/05/08 06:20:25;;;;;;;6.37;4.35;;;;;;;13.73;51.67;101123.33;1700864;82;20133;-65
2023/05/08 06:22:51;;;;;;;12.25;5.03;;;;;;;13.91;52.32;101122.60;1711275;82;21148;-66
2023/05/08 06:25:18;;;;;;;10.70;4.70;;;;;;;14.07;52.06;101115.84;1716554;83;21014;-65
2023/05/08 06:27:45;;;;;;;6.50;3.85;;;;;;;14.26;50.21;101120.38;1688052;83;21007;-65
2023/05/08 06:30:12;;;;;;;7.25;3.72;;;;;;;14.42;51.51;101113.55;1693275;84;21542;-65
2023/05/08 06:32:38;;;;;;;7.28;3.62;;;;;;;14.61;51.11;101116.77;1736911;81;21001;-64
2023/05/08 06:35:05;;;;;;;11.03;4.10;;;;;;;14.86;51.21;101120.07;1733190;80;21117;-66
2023/05/08 06:37:31;;;;;;;;;;;;;;;15.09;50.99;101115.59;1735322;80;21021;-65
2023/05/08 06:39:58;;;;;;;16.25;4.03;;;;;;;15.33;50.14;101121.09;1730732;80;20172;-65
2023/05/08 06:42:24;;;;;;;7.12;3.20;;;;;;;15.54;50.80;101116.61;1729513;81;21597;-65
2023/05/08 06:44:52;;;;;;;8.07;3.20;;;;;;;15.91;50.55;101114.08;1732650;81;21020;-65
2023/05/08 06:47:19;;;;;;;5.95;3.20;;;;;;;16.41;51.08;101110.34;1727432;81;21767;-66
2023/05/08 06:49:46;;;;;;;9.93;4.00;;;;;;;17.04;51.08;101107.17;1741504;80;21579;-66
2023/05/08 06:52:12;;;;;;;13.80;3.85;;;;;;;17.63;50.60;101109.72;1728826;81;21639;-66
2023/05/08 06:54:40;;;;;;;9.88;3.30;;;;;;;18.21;50.12;101110.09;1727595;81;21049;-66
2023/05/08 06:57:07;;;;;;;17.60;3.40;;;;;;;18.78;50.03;101107.66;1725442;81;21128;-66
2023/05/08 06:59:34;;;;;;;7.53;3.15;;;;;;;19.32;50.03;101105.23;1731493;81;21033;-64
2023/05/08 07:02:00;;;;;;;5.87;2.60;;;;;;;20.07;49.98;101099.66;1732750;81;21006;-66
2023/05/08 07:04:26;;;;;;;4.17;2.67;;;;;;;20.90;49.07;101091.50;1728620;81;21074;-66
2023/05/08 07:06:53;;;;;;;8.90;2.90;;;;;;;21.55;48.40;101096.67;1732289;81;21097;-64
2023/05/08 07:09:19;;;;;;;5.73;2.23;;;;;;;22.15;47.72;101096.78;1732033;81;21024;-67
2023/05/08 07:11:46;;;;;;;5.20;2.50;;;;;;;22.67;47.49;101098.23;1712693;82;21623;-67
2023/05/08 07:14:13;;;;;;;4.35;2.22;;;;;;;23.26;47.39;101095.44;1715427;82;21023;-67
2023/05/08 07:16:40;;;;;;;6.92;2.72;;;;;;;24.06;46.30;101099.72;1712212;82;21035;-67
2023/05/08 07:19:06;;;;;;;6.15;2.75;;;;;;;24.93;45.71;101097.73;1685722;83;21604;-68
2023/05/08 07:21:33;;;;;;;21.93;4.05;;;;;;;25.99;45.64;101091.12;1721529;82;21038;-67
2023/05/08 07:24:01;;;;;;;6.92;2.77;;;;;;;26.90;44.74;101093.47;1701252;82;21510;-67
2023/05/08 07:26:28;;;;;;;6.70;2.47;;;;;;;27.85;44.16;101091.88;1718873;81;21497;-68
2023/05/08 07:28:54;;;;;;;6.20;2.37;;;;;;;28.98;43.94;101086.77;1732652;81;21085;-66
2023/05/08 07:31:21;;;;;;;5.62;2.35;;;;;;;30.06;42.89;101086.54;1738064;80;21017;-67
2023/05/08 07:33:47;;;;;;;10.45;1.70;;;;;;;30.94;42.38;101083.16;1734438;81;21005;-66
2023/05/08 07:36:13;;;;;;;;;;;;;;;31.59;40.26;101092.05;1741217;80;20970;-67
2023/05/08 07:38:39;;;;;;;2.77;1.80;;;;;;;31.99;33.83;101087.47;1735536;80;20151;-68
2023/05/08 07:41:06;;;;;;;7.12;2.10;;;;;;;31.79;38.02;101085.20;1734868;81;21010;-68
2023/05/08 07:43:33;;;;;;;4.85;1.85;;;;;;;32.48;36.30;101085.22;1739441;81;21545;-64
2023/05/08 07:45:59;;;;;;;2.55;1.90;;;;;;;33.23;35.12;101077.20;1735007;80;21105;-65
2023/05/08 07:48:25;;;;;;;3.62;1.80;;;;;;;33.31;34.76;101072.52;1738060;80;21065;-64
2023/05/08 07:50:52;;;;;;;7.75;1.87;;;;;;;33.03;34.06;101083.17;1743571;80;21073;-63
2023/05/08 07:53:18;;;;;;;8.10;1.50;;;;;;;33.10;30.84;101081.39;1738598;80;21053;-62
2023/05/08 07:55:45;;;;;;;5.10;1.90;;;;;;;34.56;31.53;101058.30;1667254;83;21533;-64
2023/05/08 07:58:11;;;;;;;3.15;1.70;;;;;;;34.56;31.53;101058.30;1666594;84;21086;-65
2023/05/08 08:00:39;;;;;;;3.95;2.00;;;;;;;35.48;29.96;101078.34;1690390;83;21080;-63
2023/05/08 08:03:06;;;;;;;3.00;1.67;;;;;;;35.35;27.87;101062.84;1702644;83;21502;-65
2023/05/08 08:05:32;;;;;;;4.40;1.90;;;;;;;35.35;27.68;101076.42;1713442;83;21117;-66
2023/05/08 08:08:00;;;;;;;2.22;1.22;;;;;;;35.18;24.91;101075.10;1699916;81;21538;-63
2023/05/08 08:10:26;;;;;;;2.75;1.47;;;;;;;35.39;26.43;101067.34;1735718;81;21056;-66
2023/05/08 08:12:53;;;;;;;3.80;1.30;;;;;;;36.31;25.77;101069.98;1733192;81;21065;-65
2023/05/08 08:15:20;;;;;;;5.78;1.95;;;;;;;36.15;24.31;101076.66;1735770;81;21021;-65
2023/05/08 08:17:46;;;;;;;7.33;2.02;;;;;;;35.23;22.05;101078.02;1735427;80;20982;-65
2023/05/08 08:20:15;;;;;;;6.03;1.80;;;;;;;34.68;22.62;101077.08;1728696;80;21088;-63
2023/05/08 08:22:41;;;;;;;2.62;1.60;;;;;;;35.37;23.26;101081.64;1722064;82;21066;-67
2023/05/08 08:25:08;;;;;;;2.87;1.70;;;;;;;35.41;19.93;101086.47;1726085;82;20948;-66
2023/05/08 08:27:34;;;;;;;4.70;1.65;;;;;;;35.13;21.26;101083.01;1726499;82;21114;-66
2023/05/08 08:30:01;;;;;;;5.35;1.72;;;;;;;36.20;21.71;101078.23;1729513;82;20971;-66
2023/05/08 08:32:27;;;;;;;3.92;1.47;;;;;;;37.06;21.35;101067.81;1724973;82;20959;-65
2023/05/08 08:34:53;;;;;;;7.62;1.90;;;;;;;37.58;20.00;101071.36;1730708;80;21053;-65
2023/05/08 08:37:19;;;;;;;5.83;1.40;;;;;;;37.71;20.13;101069.63;1728515;82;21002;-65
2023/05/08 08:39:47;;;;;;;3.25;1.70;;;;;;;38.16;20.00;101070.92;1732276;80;20994;-65
2023/05/08 08:42:14;;;;;;;6.10;1.87;;;;;;;38.69;19.65;101078.64;1726821;81;20974;-65
2023/05/08 08:44:40;;;;;;;3.62;1.45;;;;;;;39.17;19.21;101073.83;1725490;82;21097;-65
2023/05/08 08:47:13;;;;;;;14.05;2.77;;;;;;;39.34;18.90;101076.79;1729090;82;21025;-65
2023/05/08 08:49:48;;;;;;;3.65;1.50;;;;;;;40.02;18.71;101067.41;1723958;82;21608;-66
2023/05/08 08:52:27;;;;;;;3.55;1.35;;;;;;;40.23;17.22;101072.89;1723619;81;21014;-65
2023/05/08 08:54:56;;;;;;;6.08;1.35;;;;;;;39.91;17.62;101070.95;1724479;82;20982;-65
2023/05/08 08:57:23;;;;;;;3.22;1.27;;;;;;;40.44;16.43;101075.57;1729543;82;21022;-65
2023/05/08 08:59:51;;;;;;;3.62;1.60;;;;;;;40.10;15.80;101072.53;1724677;82;21078;-64
2023/05/08 09:02:20;;;;;;;5.30;1.65;;;;;;;39.83;15.48;101072.98;1726990;81;21050;-66
2023/05/08 09:04:50;;;;;;;4.65;1.37;;;;;;;40.16;16.24;101068.03;1727655;80;20990;-65
2023/05/08 09:07:17;;;;;;;3.47;1.50;;;;;;;41.40;16.05;101062.35;1722000;82;21050;-65
2023/05/08 09:09:47;;;;;;;2.98;1.42;;;;;;;40.07;14.96;101063.44;1724769;81;20939;-65
2023/05/08 09:12:13;;;;;;;4.47;1.70;;;;;;;37.03;14.94;101064.66;1724272;81;21014;-64
2023/05/08 09:14:40;;;;;;;3.62;1.45;;;;;;;36.53;14.92;101062.47;1725979;81;21101;-65
2023/05/08 09:17:06;;;;;;;6.17;1.82;;;;;;;37.85;15.14;101055.69;1728004;82;21116;-65
2023/05/08 09:19:33;;;;;;;4.45;1.65;;;;;;;39.24;14.92;101060.93;1723732;82;21051;-65
2023/05/08 09:22:02;;;;;;;5.28;1.60;;;;;;;40.25;14.63;101064.75;1725554;82;21022;-65
2023/05/08 09:24:55;;;;;;;10.65;1.60;;;;;;;39.77;13.16;101067.59;1723823;82;21100;-65
2023/05/08 09:27:27;;;;;;;3.00;1.67;;;;;;;38.72;13.63;101058.55;1722762;82;21017;-64
2023/05/08 09:30:09;;;;;;;4.55;1.70;;;;;;;38.06;13.56;101057.77;1722367;82;21017;-64
2023/05/08 09:32:38;;;;;;;9.08;2.10;;;;;;;37.19;13.44;101056.85;1722626;82;20959;-64
2023/05/08 09:35:06;;;;;;;2.40;1.60;;;;;;;37.25;13.09;101058.41;1724795;81;21041;-63
2023/05/08 09:37:32;;;;;;;4.72;1.65;;;;;;;37.29;12.27;101055.05;1724155;82;21005;-65
2023/05/08 09:40:19;;;;;;;4.17;1.50;;;;;;;37.67;13.22;101049.31;1723364;81;21060;-64
2023/05/08 09:42:49;;;;;;;4.53;1.80;;;;;;;39.01;13.50;101045.77;1723319;81;20971;-66
2023/05/08 09:45:28;;;;;;;4.67;1.42;;;;;;;40.48;13.21;101038.45;1720625;81;21070;-66
2023/05/08 09:47:54;;;;;;;3.80;1.50;;;;;;;41.04;13.26;101035.58;1719609;81;21527;-65
2023/05/08 09:50:21;;;;;;;1.80;1.20;;;;;;;41.94;12.59;101035.39;1720826;81;21556;-66
2023/05/08 09:52:49;;;;;;;3.77;1.60;;;;;;;42.01;13.08;101037.45;1717378;81;20964;-65
2023/05/08 09:55:16;;;;;;;3.45;1.60;;;;;;;43.01;12.56;101029.81;1720060;81;21521;-66
2023/05/08 09:57:58;;;;;;;6.25;1.62;;;;;;;43.30;12.35;101036.78;1721874;81;21053;-66
2023/05/08 10:00:26;;;;;;;4.35;1.40;;;;;;;43.71;12.50;101023.98;1721523;81;21081;-66
2023/05/08 10:02:58;;;;;;;5.67;2.02;;;;;;;43.92;10.72;101026.34;1717348;81;21006;-66
2023/05/08 10:05:30;;;;;;;4.80;1.77;;;;;;;43.32;11.62;101031.83;1717762;81;21015;-66
2023/05/08 10:08:20;;;;;;;7.17;2.22;;;;;;;43.64;11.81;101029.72;1717083;82;20938;-66
2023/05/08 10:10:47;;;;;;;5.58;1.50;;;;;;;43.68;10.85;101034.96;1722735;81;21005;-65
2023/05/08 10:13:14;;;;;;;8.55;1.67;;;;;;;42.15;10.89;101027.48;1721661;82;21045;-67
2023/05/08 10:15:46;;;;;;;9.80;1.95;;;;;;;40.94;11.29;101028.52;1716873;82;21136;-67
2023/05/08 10:18:11;;;;;;;4.60;1.65;;;;;;;41.49;11.50;101019.79;1718996;82;20979;-67
2023/05/08 10:20:44;;;;;;;11.18;2.20;;;;;;;42.94;11.31;101015.42;1721469;82;21039;-67
2023/05/08 10:23:15;;;;;;;4.85;2.08;;;;;;;43.88;11.15;101021.09;1721694;82;21077;-67
2023/05/08 10:25:47;;;;;;;5.80;1.95;;;;;;;44.39;9.89;101015.98;1718588;82;21041;-67
2023/05/08 10:28:23;;;;;;;6.92;2.58;;;;;;;43.27;9.43;101027.64;1721552;81;21131;-62
2023/05/08 10:30:51;;;;;;;9.10;2.15;;;;;;;42.37;10.27;101014.67;1720916;81;21029;-65
2023/05/08 10:33:20;;;;;;;3.70;2.27;;;;;;;42.62;9.17;101021.59;1709549;81;21007;-64
2023/05/08 10:35:47;;;;;;;11.15;1.85;;;;;;;41.64;9.96;101020.59;1721429;81;21088;-68
2023/05/08 10:38:15;;;;;;;4.83;2.35;;;;;;;42.26;10.40;101010.91;1715154;81;21036;-64
2023/05/08 10:40:42;;;;;;;5.80;2.10;;;;;;;43.51;10.08;101014.98;1719821;81;21105;-64
2023/05/08 10:43:10;;;;;;;4.42;2.30;;;;;;;41.05;9.83;101009.84;1713750;81;21007;-64
2023/05/08 10:45:41;;;;;;;4.45;2.10;;;;;;;39.25;9.68;101013.95;1715717;82;21089;-63
2023/05/08 10:48:33;;;;;;;7.15;2.30;;;;;;;37.40;9.86;100997.69;1719805;83;21528;-64
2023/05/08 10:51:14;;;;;;;9.75;2.15;;;;;;;36.62;10.14;101001.33;1715798;83;20995;-66
2023/05/08 10:53:47;;;;;;;2.65;1.90;;;;;;;36.05;10.68;100998.25;1712967;81;21032;-66
2023/05/08 10:56:13;;;;;;;14.95;2.80;;;;;;;36.92;10.20;101009.00;1717157;82;21556;-66
2023/05/08 10:58:41;;;;;;;7.22;2.10;;;;;;;36.20;10.16;101008.90;1721001;82;21014;-65
2023/05/08 11:01:11;;;;;;;7.78;2.42;;;;;;;35.97;10.37;101001.67;1721689;82;21537;-66
2023/05/08 11:03:43;;;;;;;6.00;2.47;;;;;;;36.32;10.55;100998.74;1718413;81;21032;-66
2023/05/08 11:06:13;;;;;;;5.22;2.83;;;;;;;36.05;10.29;100993.34;1718593;81;22258;-66
2023/05/08 11:08:46;;;;;;;9.05;2.80;;;;;;;35.65;10.55;100997.34;1720119;83;21619;-67
2023/05/08 11:11:22;;;;;;;9.90;3.20;;;;;;;34.94;10.53;100989.03;1720654;82;21069;-67
2023/05/08 11:13:55;;;;;;;10.40;2.77;;;;;;;33.01;10.73;100985.12;1712247;82;21061;-65
2023/05/08 11:16:55;;;;;;;4.58;2.70;;;;;;;31.99;11.37;100995.63;1721113;82;21149;-67
2023/05/08 11:19:23;;;;;;;6.70;2.50;;;;;;;31.23;11.23;100976.52;1641463;85;21666;-68
2023/05/08 11:22:16;;;;;;;3.47;2.33;;;;;;;31.34;11.73;100983.34;1617798;87;21121;-66
2023/05/08 11:24:54;;;;;;;7.33;2.50;;;;;;;30.25;11.55;100987.56;1629526;86;21565;-67
2023/05/08 11:27:38;;;;;;;5.62;2.45;;;;;;;28.61;12.95;100993.00;1638562;85;21033;-66
2023/05/08 11:30:35;;;;;;;6.97;2.42;;;;;;;28.26;12.79;100980.83;1643802;85;21147;-66
2023/05/08 11:33:08;;;;;;;6.80;2.52;;;;;;;27.75;12.87;100981.03;1636930;86;22142;-66
2023/05/08 11:35:54;;;;;;;69.62;5.72;;;;;;;27.71;13.19;100978.32;1644607;86;21747;-67
2023/05/08 11:38:30;;;;;;;407.77;25.55;;;;;;;27.83;13.96;100974.42;1637605;86;21042;-65